sensor_id;sensor_type;location;lat;lon;timestamp;P1;durP1;ratioP1;P2;durP2;ratioP2
53714;SDS011;39608;55.630;37.864;2023-02-15T00:02:45;1.23;;;0.90;;
53714;SDS011;39608;55.630;37.864;2023-02-15T00:07:47;2.03;;;0.73;;
53714;SDS011;39608;55.630;37.864;2023-02-15T00:12:50;0.80;;;0.50;;
53714;SDS011;39608;55.630;37.864;2023-02-15T00:17:52;2.88;;;1.02;;
53714;SDS011;39608;55.630;37.864;2023-02-15T00:22:54;1.02;;;0.68;;
53714;SDS011;39608;55.630;37.864;2023-02-15T00:27:57;3.63;;;1.05;;
53714;SDS011;39608;55.630;37.864;2023-02-15T00:33:01;4.45;;;0.82;;
53714;SDS011;39608;55.630;37.864;2023-02-15T00:38:03;2.70;;;0.93;;
53714;SDS011;39608;55.630;37.864;2023-02-15T00:43:06;2.38;;;0.90;;
53714;SDS011;39608;55.630;37.864;2023-02-15T00:48:08;3.85;;;1.02;;
53714;SDS011;39608;55.630;37.864;2023-02-15T00:53:10;2.00;;;0.82;;
53714;SDS011;39608;55.630;37.864;2023-02-15T00:58:14;1.35;;;0.70;;
53714;SDS011;39608;55.630;37.864;2023-02-15T01:03:17;1.27;;;0.60;;
53714;SDS011;39608;55.630;37.864;2023-02-15T01:08:21;2.60;;;1.05;;
53714;SDS011;39608;55.630;37.864;2023-02-15T01:13:24;4.68;;;1.10;;
53714;SDS011;39608;55.630;37.864;2023-02-15T01:18:26;2.92;;;1.00;;
53714;SDS011;39608;55.630;37.864;2023-02-15T01:23:28;1.10;;;0.85;;
53714;SDS011;39608;55.630;37.864;2023-02-15T01:28:32;10.80;;;1.08;;
53714;SDS011;39608;55.630;37.864;2023-02-15T01:33:34;2.70;;;0.90;;
53714;SDS011;39608;55.630;37.864;2023-02-15T01:38:37;2.00;;;0.82;;
53714;SDS011;39608;55.630;37.864;2023-02-15T01:43:41;1.35;;;0.68;;
53714;SDS011;39608;55.630;37.864;2023-02-15T01:48:45;2.95;;;0.93;;
53714;SDS011;39608;55.630;37.864;2023-02-15T01:53:50;4.03;;;0.82;;
53714;SDS011;39608;55.630;37.864;2023-02-15T01:58:56;1.63;;;0.82;;
53714;SDS011;39608;55.630;37.864;2023-02-15T02:04:05;1.73;;;0.68;;
53714;SDS011;39608;55.630;37.864;2023-02-15T02:09:14;2.95;;;0.82;;
53714;SDS011;39608;55.630;37.864;2023-02-15T02:14:18;2.88;;;0.80;;
53714;SDS011;39608;55.630;37.864;2023-02-15T02:30:16;2.15;;;0.65;;
53714;SDS011;39608;55.630;37.864;2023-02-15T02:35:33;2.17;;;0.50;;
53714;SDS011;39608;55.630;37.864;2023-02-15T02:40:43;1.27;;;0.63;;
53714;SDS011;39608;55.630;37.864;2023-02-15T02:45:55;0.98;;;0.63;;
53714;SDS011;39608;55.630;37.864;2023-02-15T02:51:04;2.50;;;0.85;;
53714;SDS011;39608;55.630;37.864;2023-02-15T02:56:09;2.25;;;1.10;;
53714;SDS011;39608;55.630;37.864;2023-02-15T03:01:23;1.55;;;0.88;;
53714;SDS011;39608;55.630;37.864;2023-02-15T03:06:37;0.82;;;0.82;;
53714;SDS011;39608;55.630;37.864;2023-02-15T03:11:43;3.65;;;1.23;;
53714;SDS011;39608;55.630;37.864;2023-02-15T03:16:48;2.65;;;1.02;;
53714;SDS011;39608;55.630;37.864;2023-02-15T03:21:55;2.78;;;0.98;;
53714;SDS011;39608;55.630;37.864;2023-02-15T03:27:04;5.10;;;1.35;;
53714;SDS011;39608;55.630;37.864;2023-02-15T03:32:12;2.53;;;1.08;;
53714;SDS011;39608;55.630;37.864;2023-02-15T03:37:18;2.22;;;1.30;;
53714;SDS011;39608;55.630;37.864;2023-02-15T03:42:28;5.72;;;1.67;;
53714;SDS011;39608;55.630;37.864;2023-02-15T03:47:34;3.75;;;1.30;;
53714;SDS011;39608;55.630;37.864;2023-02-15T03:52:40;1.95;;;0.77;;
53714;SDS011;39608;55.630;37.864;2023-02-15T03:57:44;5.07;;;1.30;;
53714;SDS011;39608;55.630;37.864;2023-02-15T04:03:08;3.25;;;1.00;;
53714;SDS011;39608;55.630;37.864;2023-02-15T04:08:15;3.47;;;1.27;;
53714;SDS011;39608;55.630;37.864;2023-02-15T04:13:17;5.47;;;1.00;;
53714;SDS011;39608;55.630;37.864;2023-02-15T04:18:19;2.22;;;0.90;;
53714;SDS011;39608;55.630;37.864;2023-02-15T04:23:23;0.93;;;0.93;;
53714;SDS011;39608;55.630;37.864;2023-02-15T04:28:42;7.32;;;1.35;;
53714;SDS011;39608;55.630;37.864;2023-02-15T04:33:44;3.88;;;0.73;;
53714;SDS011;39608;55.630;37.864;2023-02-15T04:38:49;2.60;;;1.38;;
53714;SDS011;39608;55.630;37.864;2023-02-15T04:43:51;4.20;;;1.00;;
53714;SDS011;39608;55.630;37.864;2023-02-15T04:48:53;3.20;;;1.30;;
53714;SDS011;39608;55.630;37.864;2023-02-15T04:53:57;1.35;;;0.90;;
53714;SDS011;39608;55.630;37.864;2023-02-15T04:58:59;2.03;;;0.90;;
53714;SDS011;39608;55.630;37.864;2023-02-15T05:04:02;1.45;;;0.88;;
53714;SDS011;39608;55.630;37.864;2023-02-15T05:09:05;2.15;;;1.02;;
53714;SDS011;39608;55.630;37.864;2023-02-15T05:14:07;1.38;;;0.73;;
53714;SDS011;39608;55.630;37.864;2023-02-15T05:19:10;4.18;;;1.20;;
53714;SDS011;39608;55.630;37.864;2023-02-15T05:24:13;5.53;;;1.60;;
53714;SDS011;39608;55.630;37.864;2023-02-15T05:29:33;2.17;;;1.17;;
53714;SDS011;39608;55.630;37.864;2023-02-15T05:34:34;8.43;;;1.63;;
53714;SDS011;39608;55.630;37.864;2023-02-15T05:39:38;4.05;;;1.42;;
53714;SDS011;39608;55.630;37.864;2023-02-15T05:44:40;2.40;;;1.20;;
53714;SDS011;39608;55.630;37.864;2023-02-15T05:49:42;3.47;;;1.30;;
53714;SDS011;39608;55.630;37.864;2023-02-15T05:54:45;3.88;;;1.40;;
53714;SDS011;39608;55.630;37.864;2023-02-15T05:59:47;1.55;;;1.00;;
53714;SDS011;39608;55.630;37.864;2023-02-15T06:04:49;1.48;;;1.05;;
53714;SDS011;39608;55.630;37.864;2023-02-15T06:09:52;2.83;;;1.00;;
53714;SDS011;39608;55.630;37.864;2023-02-15T06:14:54;4.28;;;1.60;;
53714;SDS011;39608;55.630;37.864;2023-02-15T06:19:56;4.03;;;1.75;;
53714;SDS011;39608;55.630;37.864;2023-02-15T06:24:59;1.63;;;1.17;;
53714;SDS011;39608;55.630;37.864;2023-02-15T06:30:04;2.60;;;1.20;;
53714;SDS011;39608;55.630;37.864;2023-02-15T06:35:07;2.85;;;0.80;;
53714;SDS011;39608;55.630;37.864;2023-02-15T06:40:11;3.38;;;1.52;;
53714;SDS011;39608;55.630;37.864;2023-02-15T06:45:14;2.20;;;1.15;;
53714;SDS011;39608;55.630;37.864;2023-02-15T06:50:16;4.35;;;1.88;;
53714;SDS011;39608;55.630;37.864;2023-02-15T06:55:19;2.83;;;1.55;;
53714;SDS011;39608;55.630;37.864;2023-02-15T07:00:21;6.90;;;1.27;;
53714;SDS011;39608;55.630;37.864;2023-02-15T07:05:25;3.50;;;1.73;;
53714;SDS011;39608;55.630;37.864;2023-02-15T07:15:34;7.82;;;1.80;;
53714;SDS011;39608;55.630;37.864;2023-02-15T07:20:36;4.13;;;1.92;;
53714;SDS011;39608;55.630;37.864;2023-02-15T07:25:40;3.58;;;1.48;;
53714;SDS011;39608;55.630;37.864;2023-02-15T07:30:42;3.38;;;1.50;;
53714;SDS011;39608;55.630;37.864;2023-02-15T07:35:47;4.63;;;2.15;;
53714;SDS011;39608;55.630;37.864;2023-02-15T07:40:51;5.63;;;1.90;;
53714;SDS011;39608;55.630;37.864;2023-02-15T07:45:58;6.88;;;1.83;;
53714;SDS011;39608;55.630;37.864;2023-02-15T07:51:02;2.25;;;1.30;;
53714;SDS011;39608;55.630;37.864;2023-02-15T07:56:08;1.55;;;1.20;;
53714;SDS011;39608;55.630;37.864;2023-02-15T08:01:11;2.10;;;1.65;;
53714;SDS011;39608;55.630;37.864;2023-02-15T08:06:14;3.80;;;1.90;;
53714;SDS011;39608;55.630;37.864;2023-02-15T08:11:18;4.28;;;1.63;;
53714;SDS011;39608;55.630;37.864;2023-02-15T08:16:30;4.68;;;1.95;;
53714;SDS011;39608;55.630;37.864;2023-02-15T08:21:34;2.35;;;1.60;;
53714;SDS011;39608;55.630;37.864;2023-02-15T08:26:38;5.60;;;2.10;;
53714;SDS011;39608;55.630;37.864;2023-02-15T08:31:41;3.58;;;1.92;;
53714;SDS011;39608;55.630;37.864;2023-02-15T08:36:44;1.85;;;1.27;;
53714;SDS011;39608;55.630;37.864;2023-02-15T08:41:47;2.92;;;1.63;;
53714;SDS011;39608;55.630;37.864;2023-02-15T08:46:50;9.93;;;1.65;;
53714;SDS011;39608;55.630;37.864;2023-02-15T08:51:52;1.85;;;1.42;;
53714;SDS011;39608;55.630;37.864;2023-02-15T08:56:56;4.10;;;1.80;;
53714;SDS011;39608;55.630;37.864;2023-02-15T09:01:58;2.97;;;1.60;;
53714;SDS011;39608;55.630;37.864;2023-02-15T09:07:00;6.05;;;1.52;;
53714;SDS011;39608;55.630;37.864;2023-02-15T09:12:06;2.45;;;1.80;;
53714;SDS011;39608;55.630;37.864;2023-02-15T09:17:10;3.25;;;1.38;;
53714;SDS011;39608;55.630;37.864;2023-02-15T09:22:12;2.53;;;1.23;;
53714;SDS011;39608;55.630;37.864;2023-02-15T09:27:16;1.58;;;1.00;;
53714;SDS011;39608;55.630;37.864;2023-02-15T09:32:18;3.15;;;1.40;;
53714;SDS011;39608;55.630;37.864;2023-02-15T09:37:20;1.73;;;1.20;;
53714;SDS011;39608;55.630;37.864;2023-02-15T09:42:29;1.85;;;1.50;;
53714;SDS011;39608;55.630;37.864;2023-02-15T09:47:46;3.78;;;1.55;;
53714;SDS011;39608;55.630;37.864;2023-02-15T09:53:12;1.77;;;1.25;;
53714;SDS011;39608;55.630;37.864;2023-02-15T09:58:34;1.80;;;1.45;;
53714;SDS011;39608;55.630;37.864;2023-02-15T10:03:51;1.30;;;0.93;;
53714;SDS011;39608;55.630;37.864;2023-02-15T10:09:07;2.17;;;1.10;;
53714;SDS011;39608;55.630;37.864;2023-02-15T10:14:23;1.45;;;1.20;;
53714;SDS011;39608;55.630;37.864;2023-02-15T10:19:39;3.20;;;1.00;;
53714;SDS011;39608;55.630;37.864;2023-02-15T10:30:28;1.55;;;1.02;;
53714;SDS011;39608;55.630;37.864;2023-02-15T10:35:36;2.92;;;1.00;;
53714;SDS011;39608;55.630;37.864;2023-02-15T10:40:52;0.75;;;0.70;;
53714;SDS011;39608;55.630;37.864;2023-02-15T10:46:07;1.40;;;0.73;;
53714;SDS011;39608;55.630;37.864;2023-02-15T10:51:19;1.75;;;0.80;;
53714;SDS011;39608;55.630;37.864;2023-02-15T10:56:30;0.82;;;0.80;;
53714;SDS011;39608;55.630;37.864;2023-02-15T11:01:40;3.22;;;1.08;;
53714;SDS011;39608;55.630;37.864;2023-02-15T11:06:48;1.45;;;0.93;;
53714;SDS011;39608;55.630;37.864;2023-02-15T11:11:54;1.67;;;0.70;;
53714;SDS011;39608;55.630;37.864;2023-02-15T11:17:04;1.00;;;0.83;;
53714;SDS011;39608;55.630;37.864;2023-02-15T11:22:11;2.95;;;0.73;;
53714;SDS011;39608;55.630;37.864;2023-02-15T11:27:16;0.98;;;0.80;;
53714;SDS011;39608;55.630;37.864;2023-02-15T11:32:23;1.92;;;1.20;;
53714;SDS011;39608;55.630;37.864;2023-02-15T11:42:34;2.65;;;0.85;;
53714;SDS011;39608;55.630;37.864;2023-02-15T11:47:38;1.35;;;0.80;;
53714;SDS011;39608;55.630;37.864;2023-02-15T11:52:40;2.47;;;0.90;;
53714;SDS011;39608;55.630;37.864;2023-02-15T11:57:43;0.80;;;0.60;;
53714;SDS011;39608;55.630;37.864;2023-02-15T12:02:52;2.10;;;0.80;;
53714;SDS011;39608;55.630;37.864;2023-02-15T12:07:57;0.82;;;0.70;;
53714;SDS011;39608;55.630;37.864;2023-02-15T12:13:10;1.05;;;0.82;;
53714;SDS011;39608;55.630;37.864;2023-02-15T12:18:24;1.15;;;0.88;;
53714;SDS011;39608;55.630;37.864;2023-02-15T12:23:40;1.10;;;0.68;;
53714;SDS011;39608;55.630;37.864;2023-02-15T12:28:48;1.77;;;0.70;;
53714;SDS011;39608;55.630;37.864;2023-02-15T12:33:56;0.80;;;0.77;;
53714;SDS011;39608;55.630;37.864;2023-02-15T12:39:03;1.90;;;1.00;;
53714;SDS011;39608;55.630;37.864;2023-02-15T12:49:26;1.98;;;0.90;;
53714;SDS011;39608;55.630;37.864;2023-02-15T12:54:30;1.10;;;0.60;;
53714;SDS011;39608;55.630;37.864;2023-02-15T12:59:36;4.82;;;0.60;;
53714;SDS011;39608;55.630;37.864;2023-02-15T13:04:46;2.17;;;0.68;;
53714;SDS011;39608;55.630;37.864;2023-02-15T13:09:51;0.80;;;0.60;;
53714;SDS011;39608;55.630;37.864;2023-02-15T13:14:54;0.68;;;0.68;;
53714;SDS011;39608;55.630;37.864;2023-02-15T13:20:02;0.65;;;0.65;;
53714;SDS011;39608;55.630;37.864;2023-02-15T13:25:11;1.63;;;0.70;;
53714;SDS011;39608;55.630;37.864;2023-02-15T13:30:22;0.70;;;0.70;;
53714;SDS011;39608;55.630;37.864;2023-02-15T13:35:28;1.30;;;0.70;;
53714;SDS011;39608;55.630;37.864;2023-02-15T13:40:40;0.50;;;0.50;;
53714;SDS011;39608;55.630;37.864;2023-02-15T13:45:52;1.50;;;0.85;;
53714;SDS011;39608;55.630;37.864;2023-02-15T13:51:12;0.50;;;0.50;;
53714;SDS011;39608;55.630;37.864;2023-02-15T13:56:21;0.40;;;0.40;;
53714;SDS011;39608;55.630;37.864;2023-02-15T14:01:33;0.82;;;0.52;;
53714;SDS011;39608;55.630;37.864;2023-02-15T14:06:55;0.70;;;0.70;;
53714;SDS011;39608;55.630;37.864;2023-02-15T14:12:12;1.08;;;0.73;;
53714;SDS011;39608;55.630;37.864;2023-02-15T14:17:31;1.65;;;0.80;;
53714;SDS011;39608;55.630;37.864;2023-02-15T14:22:47;1.33;;;0.80;;
53714;SDS011;39608;55.630;37.864;2023-02-15T14:27:56;0.82;;;0.80;;
53714;SDS011;39608;55.630;37.864;2023-02-15T14:33:19;0.50;;;0.50;;
53714;SDS011;39608;55.630;37.864;2023-02-15T14:38:38;0.50;;;0.50;;
53714;SDS011;39608;55.630;37.864;2023-02-15T14:43:55;0.70;;;0.70;;
53714;SDS011;39608;55.630;37.864;2023-02-15T14:49:08;0.77;;;0.65;;
53714;SDS011;39608;55.630;37.864;2023-02-15T14:59:52;0.60;;;0.60;;
53714;SDS011;39608;55.630;37.864;2023-02-15T15:05:01;0.70;;;0.70;;
53714;SDS011;39608;55.630;37.864;2023-02-15T15:15:45;0.50;;;0.50;;
53714;SDS011;39608;55.630;37.864;2023-02-15T15:20:48;0.85;;;0.60;;
53714;SDS011;39608;55.630;37.864;2023-02-15T15:25:51;3.38;;;0.85;;
53714;SDS011;39608;55.630;37.864;2023-02-15T15:31:06;0.63;;;0.63;;
53714;SDS011;39608;55.630;37.864;2023-02-15T15:41:57;1.25;;;0.98;;
53714;SDS011;39608;55.630;37.864;2023-02-15T15:47:13;1.10;;;0.80;;
53714;SDS011;39608;55.630;37.864;2023-02-15T15:52:31;1.73;;;0.75;;
53714;SDS011;39608;55.630;37.864;2023-02-15T16:02:50;2.00;;;0.88;;
53714;SDS011;39608;55.630;37.864;2023-02-15T16:07:53;1.08;;;0.70;;
53714;SDS011;39608;55.630;37.864;2023-02-15T16:12:55;1.58;;;0.82;;
53714;SDS011;39608;55.630;37.864;2023-02-15T16:17:59;1.67;;;0.80;;
53714;SDS011;39608;55.630;37.864;2023-02-15T16:23:07;0.52;;;0.52;;
53714;SDS011;39608;55.630;37.864;2023-02-15T16:28:23;0.70;;;0.68;;
53714;SDS011;39608;55.630;37.864;2023-02-15T16:33:33;1.08;;;0.75;;
53714;SDS011;39608;55.630;37.864;2023-02-15T16:38:54;1.98;;;0.95;;
53714;SDS011;39608;55.630;37.864;2023-02-15T16:44:11;2.33;;;0.90;;
53714;SDS011;39608;55.630;37.864;2023-02-15T16:49:19;1.23;;;0.80;;
53714;SDS011;39608;55.630;37.864;2023-02-15T16:54:24;0.88;;;0.60;;
53714;SDS011;39608;55.630;37.864;2023-02-15T16:59:31;1.52;;;1.10;;
53714;SDS011;39608;55.630;37.864;2023-02-15T17:04:39;1.95;;;0.98;;
53714;SDS011;39608;55.630;37.864;2023-02-15T17:09:48;1.35;;;0.98;;
53714;SDS011;39608;55.630;37.864;2023-02-15T17:14:51;2.70;;;0.90;;
53714;SDS011;39608;55.630;37.864;2023-02-15T17:19:57;1.58;;;0.68;;
53714;SDS011;39608;55.630;37.864;2023-02-15T17:25:00;1.65;;;0.85;;
53714;SDS011;39608;55.630;37.864;2023-02-15T17:30:12;0.73;;;0.73;;
53714;SDS011;39608;55.630;37.864;2023-02-15T17:35:20;1.15;;;0.90;;
53714;SDS011;39608;55.630;37.864;2023-02-15T17:40:25;2.40;;;1.20;;
53714;SDS011;39608;55.630;37.864;2023-02-15T17:45:31;2.20;;;1.05;;
53714;SDS011;39608;55.630;37.864;2023-02-15T17:50:36;1.77;;;1.17;;
53714;SDS011;39608;55.630;37.864;2023-02-15T17:55:38;2.45;;;1.30;;
53714;SDS011;39608;55.630;37.864;2023-02-15T18:00:42;1.17;;;0.93;;
53714;SDS011;39608;55.630;37.864;2023-02-15T18:06:05;2.22;;;1.52;;
53714;SDS011;39608;55.630;37.864;2023-02-15T18:11:24;1.95;;;1.38;;
53714;SDS011;39608;55.630;37.864;2023-02-15T18:16:38;1.20;;;1.10;;
53714;SDS011;39608;55.630;37.864;2023-02-15T18:21:44;1.42;;;1.00;;
53714;SDS011;39608;55.630;37.864;2023-02-15T18:26:47;1.98;;;1.20;;
53714;SDS011;39608;55.630;37.864;2023-02-15T18:31:50;1.25;;;0.82;;
53714;SDS011;39608;55.630;37.864;2023-02-15T18:36:56;2.53;;;1.40;;
53714;SDS011;39608;55.630;37.864;2023-02-15T18:41:59;1.05;;;0.90;;
53714;SDS011;39608;55.630;37.864;2023-02-15T18:47:01;2.22;;;1.23;;
53714;SDS011;39608;55.630;37.864;2023-02-15T18:52:04;1.95;;;1.10;;
53714;SDS011;39608;55.630;37.864;2023-02-15T18:57:08;1.27;;;0.93;;
53714;SDS011;39608;55.630;37.864;2023-02-15T19:02:14;1.15;;;0.90;;
53714;SDS011;39608;55.630;37.864;2023-02-15T19:07:19;0.70;;;0.70;;
53714;SDS011;39608;55.630;37.864;2023-02-15T19:12:24;1.67;;;0.80;;
53714;SDS011;39608;55.630;37.864;2023-02-15T19:17:27;0.80;;;0.80;;
53714;SDS011;39608;55.630;37.864;2023-02-15T19:22:31;1.77;;;0.70;;
53714;SDS011;39608;55.630;37.864;2023-02-15T19:27:34;0.75;;;0.75;;
53714;SDS011;39608;55.630;37.864;2023-02-15T19:32:36;4.13;;;1.10;;
53714;SDS011;39608;55.630;37.864;2023-02-15T19:37:40;0.88;;;0.85;;
53714;SDS011;39608;55.630;37.864;2023-02-15T19:42:45;3.67;;;1.10;;
53714;SDS011;39608;55.630;37.864;2023-02-15T19:47:48;1.05;;;0.80;;
53714;SDS011;39608;55.630;37.864;2023-02-15T19:52:54;0.75;;;0.73;;
53714;SDS011;39608;55.630;37.864;2023-02-15T19:57:57;2.75;;;0.80;;
53714;SDS011;39608;55.630;37.864;2023-02-15T20:03:01;1.10;;;1.00;;
53714;SDS011;39608;55.630;37.864;2023-02-15T20:08:05;1.13;;;0.70;;
53714;SDS011;39608;55.630;37.864;2023-02-15T20:13:09;5.13;;;0.95;;
53714;SDS011;39608;55.630;37.864;2023-02-15T20:18:15;1.35;;;0.90;;
53714;SDS011;39608;55.630;37.864;2023-02-15T20:23:19;1.00;;;0.95;;
53714;SDS011;39608;55.630;37.864;2023-02-15T20:28:25;1.05;;;0.80;;
53714;SDS011;39608;55.630;37.864;2023-02-15T20:33:28;2.20;;;0.95;;
53714;SDS011;39608;55.630;37.864;2023-02-15T20:38:32;0.80;;;0.80;;
53714;SDS011;39608;55.630;37.864;2023-02-15T20:43:34;0.90;;;0.70;;
53714;SDS011;39608;55.630;37.864;2023-02-15T20:48:36;1.48;;;0.82;;
53714;SDS011;39608;55.630;37.864;2023-02-15T20:53:39;1.38;;;0.93;;
53714;SDS011;39608;55.630;37.864;2023-02-15T20:58:41;2.60;;;0.90;;
53714;SDS011;39608;55.630;37.864;2023-02-15T21:03:44;0.75;;;0.73;;
53714;SDS011;39608;55.630;37.864;2023-02-15T21:08:48;1.00;;;0.80;;
53714;SDS011;39608;55.630;37.864;2023-02-15T21:13:50;1.98;;;0.80;;
53714;SDS011;39608;55.630;37.864;2023-02-15T21:18:52;1.55;;;1.10;;
53714;SDS011;39608;55.630;37.864;2023-02-15T21:23:55;0.80;;;0.55;;
53714;SDS011;39608;55.630;37.864;2023-02-15T21:28:57;0.95;;;0.82;;
53714;SDS011;39608;55.630;37.864;2023-02-15T21:33:59;1.20;;;0.60;;
53714;SDS011;39608;55.630;37.864;2023-02-15T21:39:02;0.68;;;0.68;;
53714;SDS011;39608;55.630;37.864;2023-02-15T21:44:10;2.60;;;1.00;;
53714;SDS011;39608;55.630;37.864;2023-02-15T21:49:33;1.85;;;0.80;;
53714;SDS011;39608;55.630;37.864;2023-02-15T21:54:37;1.02;;;0.80;;
53714;SDS011;39608;55.630;37.864;2023-02-15T21:59:39;0.73;;;0.50;;
53714;SDS011;39608;55.630;37.864;2023-02-15T22:04:42;0.57;;;0.57;;
53714;SDS011;39608;55.630;37.864;2023-02-15T22:09:45;0.90;;;0.80;;
53714;SDS011;39608;55.630;37.864;2023-02-15T22:14:48;0.57;;;0.57;;
53714;SDS011;39608;55.630;37.864;2023-02-15T22:19:53;0.47;;;0.47;;
53714;SDS011;39608;55.630;37.864;2023-02-15T22:24:57;0.52;;;0.52;;
53714;SDS011;39608;55.630;37.864;2023-02-15T22:29:59;0.40;;;0.40;;
53714;SDS011;39608;55.630;37.864;2023-02-15T22:35:01;0.50;;;0.50;;
53714;SDS011;39608;55.630;37.864;2023-02-15T22:40:06;1.40;;;0.85;;
53714;SDS011;39608;55.630;37.864;2023-02-15T22:45:08;2.88;;;0.90;;
53714;SDS011;39608;55.630;37.864;2023-02-15T22:50:18;0.43;;;0.43;;
53714;SDS011;39608;55.630;37.864;2023-02-15T22:55:23;1.02;;;0.60;;
53714;SDS011;39608;55.630;37.864;2023-02-15T23:00:28;2.97;;;0.60;;
53714;SDS011;39608;55.630;37.864;2023-02-15T23:05:36;1.55;;;0.60;;
53714;SDS011;39608;55.630;37.864;2023-02-15T23:10:39;1.38;;;0.65;;
53714;SDS011;39608;55.630;37.864;2023-02-15T23:15:43;1.25;;;0.60;;
53714;SDS011;39608;55.630;37.864;2023-02-15T23:20:49;0.65;;;0.60;;
53714;SDS011;39608;55.630;37.864;2023-02-15T23:25:54;1.23;;;0.75;;
53714;SDS011;39608;55.630;37.864;2023-02-15T23:30:56;1.40;;;0.80;;
53714;SDS011;39608;55.630;37.864;2023-02-15T23:35:59;3.15;;;0.65;;
53714;SDS011;39608;55.630;37.864;2023-02-15T23:41:02;0.80;;;0.60;;
53714;SDS011;39608;55.630;37.864;2023-02-15T23:46:24;3.03;;;0.60;;
53714;SDS011;39608;55.630;37.864;2023-02-15T23:51:30;0.60;;;0.60;;
53714;SDS011;39608;55.630;37.864;2023-02-15T23:56:33;1.55;;;0.75;;
